GIA1124 WAAA-WIMM
Flight info
| Callsign | GIA1124 |
|---|---|
| Flight time | N/A |
| Altitude | 36000 |
| Route | GURNI DCT TANUR DCT GUKNO DCT JATAM A585 PKU DCT MEDIA |
| Aircraft | B77W/H-SDE1E2E3FGHIJ4J5M1RWXY/LB1D1 |
Departure
| Time | N/A |
|---|---|
| Airport | Sultan Hasanuddin International Airport (WAAA) |
Arrival
| Time | 2026-05-09 02:57 |
|---|---|
| Airport | Kualanamu International Airport (WIMM) |
| Time | Latitude | Longitude | Altitude | Speed | Heading |
|---|---|---|---|---|---|
| 2026-05-09 01:59 | -1.10581 | 103.39980 | 35927 ft | 510 kts | 275° |
| 2026-05-09 01:59 | -1.10352 | 103.36541 | 35924 ft | 510 kts | 275° |
| 2026-05-09 01:59 | -1.09883 | 103.29525 | 35929 ft | 509 kts | 275° |
| 2026-05-09 02:00 | -1.09412 | 103.22479 | 35932 ft | 508 kts | 275° |
| 2026-05-09 02:00 | -1.08941 | 103.15433 | 35933 ft | 508 kts | 275° |
| 2026-05-09 02:01 | -1.08467 | 103.08344 | 35932 ft | 507 kts | 275° |
| 2026-05-09 02:01 | -1.08000 | 103.01361 | 35934 ft | 507 kts | 275° |
| 2026-05-09 02:02 | -1.07497 | 102.94335 | 35930 ft | 505 kts | 279° |
| 2026-05-09 02:02 | -1.06666 | 102.90944 | 35905 ft | 501 kts | 294° |
| 2026-05-09 02:02 | -1.05127 | 102.87843 | 35944 ft | 497 kts | 305° |
| 2026-05-09 02:03 | -1.03041 | 102.85115 | 35923 ft | 492 kts | 317° |
| 2026-05-09 02:03 | -1.00586 | 102.82758 | 35957 ft | 490 kts | 319° |
| 2026-05-09 02:03 | -0.95595 | 102.78070 | 35939 ft | 494 kts | 319° |
| 2026-05-09 02:04 | -0.91456 | 102.74132 | 35945 ft | 496 kts | 319° |
| 2026-05-09 02:04 | -0.86486 | 102.69338 | 35932 ft | 497 kts | 318° |
| 2026-05-09 02:05 | -0.81520 | 102.64519 | 35929 ft | 497 kts | 318° |
| 2026-05-09 02:05 | -0.76572 | 102.59696 | 35931 ft | 496 kts | 318° |
| 2026-05-09 02:06 | -0.71613 | 102.54899 | 35903 ft | 496 kts | 318° |
| 2026-05-09 02:07 | -0.64187 | 102.47710 | 35922 ft | 495 kts | 318° |
| 2026-05-09 02:07 | -0.59273 | 102.42946 | 35918 ft | 496 kts | 318° |
| 2026-05-09 02:08 | -0.54324 | 102.38148 | 35918 ft | 496 kts | 318° |
| 2026-05-09 02:08 | -0.49374 | 102.33350 | 35915 ft | 496 kts | 318° |
| 2026-05-09 02:09 | -0.44418 | 102.28546 | 35912 ft | 496 kts | 318° |
| 2026-05-09 02:09 | -0.39461 | 102.23742 | 35913 ft | 496 kts | 318° |
| 2026-05-09 02:10 | -0.34504 | 102.18936 | 35915 ft | 497 kts | 318° |
| 2026-05-09 02:10 | -0.29548 | 102.14133 | 35908 ft | 496 kts | 318° |
| 2026-05-09 02:11 | -0.24592 | 102.09330 | 35909 ft | 496 kts | 318° |
| 2026-05-09 02:11 | -0.19637 | 102.04527 | 35910 ft | 496 kts | 318° |
| 2026-05-09 02:12 | -0.14687 | 101.99730 | 35909 ft | 496 kts | 318° |
| 2026-05-09 02:12 | -0.09736 | 101.94931 | 35910 ft | 496 kts | 318° |
| 2026-05-09 02:13 | -0.04816 | 101.90162 | 35908 ft | 496 kts | 318° |
| 2026-05-09 02:13 | 0.00137 | 101.85362 | 35911 ft | 496 kts | 318° |
| 2026-05-09 02:14 | 0.05091 | 101.80561 | 35903 ft | 496 kts | 318° |
| 2026-05-09 02:14 | 0.10045 | 101.75759 | 35904 ft | 496 kts | 318° |
| 2026-05-09 02:15 | 0.15003 | 101.70954 | 35902 ft | 497 kts | 318° |
| 2026-05-09 02:15 | 0.19961 | 101.66148 | 35903 ft | 497 kts | 318° |
| 2026-05-09 02:16 | 0.24925 | 101.61337 | 35904 ft | 497 kts | 318° |
| 2026-05-09 02:16 | 0.29881 | 101.56533 | 35908 ft | 497 kts | 318° |
| 2026-05-09 02:17 | 0.34844 | 101.51722 | 35910 ft | 497 kts | 318° |
| 2026-05-09 02:17 | 0.39803 | 101.46914 | 35912 ft | 497 kts | 318° |
| 2026-05-09 02:18 | 0.44784 | 101.42127 | 35911 ft | 496 kts | 319° |
| 2026-05-09 02:18 | 0.49834 | 101.37492 | 35914 ft | 496 kts | 320° |
| 2026-05-09 02:19 | 0.54937 | 101.32855 | 35909 ft | 496 kts | 320° |
| 2026-05-09 02:19 | 0.60025 | 101.28205 | 35905 ft | 496 kts | 320° |
| 2026-05-09 02:20 | 0.65103 | 101.23543 | 35905 ft | 496 kts | 320° |
| 2026-05-09 02:20 | 0.70178 | 101.18879 | 35904 ft | 495 kts | 320° |
| 2026-05-09 02:21 | 0.75248 | 101.14220 | 35902 ft | 495 kts | 320° |
| 2026-05-09 02:21 | 0.80313 | 101.09566 | 35901 ft | 494 kts | 320° |
| 2026-05-09 02:22 | 0.85374 | 101.04917 | 35899 ft | 494 kts | 320° |
| 2026-05-09 02:22 | 0.90431 | 101.00271 | 35905 ft | 493 kts | 320° |
| 2026-05-09 02:23 | 0.95480 | 100.95633 | 35908 ft | 493 kts | 320° |
| 2026-05-09 02:23 | 1.00528 | 100.90995 | 35907 ft | 493 kts | 320° |
| 2026-05-09 02:24 | 1.05574 | 100.86359 | 35910 ft | 493 kts | 320° |
| 2026-05-09 02:24 | 1.10593 | 100.81747 | 35909 ft | 493 kts | 320° |
| 2026-05-09 02:25 | 1.15641 | 100.77108 | 35911 ft | 493 kts | 320° |
| 2026-05-09 02:25 | 1.20692 | 100.72466 | 35910 ft | 493 kts | 320° |
| 2026-05-09 02:26 | 1.25743 | 100.67825 | 35911 ft | 493 kts | 320° |
| 2026-05-09 02:26 | 1.30798 | 100.63179 | 35913 ft | 494 kts | 320° |
| 2026-05-09 02:27 | 1.35849 | 100.58536 | 35911 ft | 494 kts | 320° |
| 2026-05-09 02:27 | 1.40906 | 100.53888 | 35913 ft | 494 kts | 319° |
| 2026-05-09 02:28 | 1.45964 | 100.49238 | 35919 ft | 494 kts | 319° |
| 2026-05-09 02:28 | 1.51023 | 100.44587 | 35919 ft | 494 kts | 319° |
| 2026-05-09 02:29 | 1.56076 | 100.39942 | 35920 ft | 493 kts | 319° |
| 2026-05-09 02:29 | 1.61122 | 100.35302 | 35919 ft | 492 kts | 319° |
| 2026-05-09 02:30 | 1.66159 | 100.30671 | 35920 ft | 492 kts | 319° |
| 2026-05-09 02:30 | 1.71191 | 100.26044 | 35922 ft | 491 kts | 319° |
| 2026-05-09 02:31 | 1.76216 | 100.21422 | 35924 ft | 491 kts | 319° |
| 2026-05-09 02:31 | 1.81240 | 100.16801 | 35916 ft | 491 kts | 319° |
| 2026-05-09 02:31 | 1.83759 | 100.14484 | 35737 ft | 494 kts | 319° |
| 2026-05-09 02:32 | 1.86318 | 100.12131 | 34928 ft | 505 kts | 319° |
| 2026-05-09 02:32 | 1.88903 | 100.09752 | 34125 ft | 506 kts | 319° |
| 2026-05-09 02:32 | 1.91504 | 100.07360 | 33136 ft | 509 kts | 319° |
| 2026-05-09 02:32 | 1.94322 | 100.05247 | 32127 ft | 506 kts | 333° |
| 2026-05-09 02:33 | 1.97561 | 100.03949 | 31211 ft | 504 kts | 349° |
| 2026-05-09 02:33 | 2.00998 | 100.03500 | 30581 ft | 494 kts | 355° |
| 2026-05-09 02:33 | 2.04406 | 100.03102 | 29870 ft | 493 kts | 354° |
| 2026-05-09 02:33 | 2.07798 | 100.02638 | 29107 ft | 491 kts | 353° |
| 2026-05-09 02:34 | 2.11160 | 100.02139 | 28426 ft | 487 kts | 352° |
| 2026-05-09 02:34 | 2.14457 | 100.01636 | 27770 ft | 484 kts | 352° |
| 2026-05-09 02:34 | 2.17748 | 100.01132 | 27128 ft | 480 kts | 352° |
| 2026-05-09 02:34 | 2.21049 | 100.00631 | 26489 ft | 477 kts | 352° |
| 2026-05-09 02:35 | 2.24318 | 100.00139 | 25858 ft | 474 kts | 352° |
| 2026-05-09 02:35 | 2.27570 | 99.99652 | 26476 ft | 472 kts | 353° |
| 2026-05-09 02:35 | 2.30809 | 99.99168 | 24602 ft | 469 kts | 353° |
| 2026-05-09 02:35 | 2.34019 | 99.98688 | 23957 ft | 467 kts | 353° |
| 2026-05-09 02:36 | 2.37230 | 99.98208 | 23274 ft | 465 kts | 353° |
| 2026-05-09 02:36 | 2.40406 | 99.97733 | 22809 ft | 456 kts | 353° |
| 2026-05-09 02:36 | 2.43496 | 99.97271 | 22622 ft | 443 kts | 353° |
| 2026-05-09 02:36 | 2.46515 | 99.96820 | 22435 ft | 436 kts | 353° |
| 2026-05-09 02:37 | 2.49528 | 99.96373 | 22271 ft | 443 kts | 353° |
| 2026-05-09 02:37 | 2.52614 | 99.95914 | 21733 ft | 458 kts | 352° |
| 2026-05-09 02:37 | 2.55718 | 99.95448 | 21790 ft | 445 kts | 353° |
| 2026-05-09 02:37 | 2.58758 | 99.94995 | 21725 ft | 440 kts | 353° |
| 2026-05-09 02:38 | 2.61791 | 99.94543 | 21533 ft | 442 kts | 353° |
| 2026-05-09 02:38 | 2.64829 | 99.94091 | 21353 ft | 442 kts | 353° |
| 2026-05-09 02:38 | 2.67871 | 99.93637 | 21169 ft | 442 kts | 353° |
| 2026-05-09 02:38 | 2.70872 | 99.93037 | 20981 ft | 440 kts | 343° |
| 2026-05-09 02:39 | 2.73578 | 99.91621 | 20790 ft | 441 kts | 323° |
| 2026-05-09 02:39 | 2.75936 | 99.89687 | 20643 ft | 439 kts | 322° |
| 2026-05-09 02:39 | 2.78288 | 99.87799 | 20463 ft | 440 kts | 322° |
| 2026-05-09 02:39 | 2.80705 | 99.85905 | 20280 ft | 442 kts | 323° |
| 2026-05-09 02:40 | 2.83093 | 99.84055 | 20097 ft | 442 kts | 323° |
| 2026-05-09 02:40 | 2.85530 | 99.82174 | 19923 ft | 442 kts | 323° |
| 2026-05-09 02:40 | 2.87960 | 99.80300 | 19742 ft | 440 kts | 323° |
| 2026-05-09 02:40 | 2.90375 | 99.78436 | 19555 ft | 438 kts | 323° |
| 2026-05-09 02:41 | 2.92782 | 99.76576 | 19372 ft | 435 kts | 323° |
| 2026-05-09 02:41 | 2.95172 | 99.74729 | 19192 ft | 433 kts | 323° |
| 2026-05-09 02:41 | 2.97547 | 99.72892 | 19029 ft | 431 kts | 323° |
| 2026-05-09 02:41 | 2.99809 | 99.71142 | 19689 ft | 429 kts | 323° |
| 2026-05-09 02:42 | 3.02181 | 99.69307 | 18526 ft | 429 kts | 323° |
| 2026-05-09 02:42 | 3.04527 | 99.67491 | 18470 ft | 426 kts | 323° |
| 2026-05-09 02:42 | 3.06873 | 99.65677 | 18292 ft | 426 kts | 323° |
| 2026-05-09 02:42 | 3.09217 | 99.63863 | 18127 ft | 426 kts | 323° |
| 2026-05-09 02:43 | 3.11556 | 99.62054 | 17924 ft | 425 kts | 323° |
| 2026-05-09 02:43 | 3.13861 | 99.60271 | 17757 ft | 424 kts | 323° |
| 2026-05-09 02:43 | 3.16196 | 99.58464 | 17558 ft | 423 kts | 323° |
| 2026-05-09 02:43 | 3.18518 | 99.56666 | 17389 ft | 422 kts | 323° |
| 2026-05-09 02:44 | 3.20822 | 99.54882 | 17212 ft | 420 kts | 323° |
| 2026-05-09 02:44 | 3.23131 | 99.53096 | 17048 ft | 419 kts | 323° |
| 2026-05-09 02:44 | 3.25408 | 99.51340 | 16836 ft | 419 kts | 323° |
| 2026-05-09 02:44 | 3.27809 | 99.49656 | 16310 ft | 421 kts | 327° |
| 2026-05-09 02:45 | 3.30257 | 99.48077 | 15819 ft | 417 kts | 328° |
| 2026-05-09 02:45 | 3.32692 | 99.46542 | 15323 ft | 412 kts | 328° |
| 2026-05-09 02:45 | 3.35102 | 99.45014 | 14835 ft | 407 kts | 328° |
| 2026-05-09 02:45 | 3.37476 | 99.43493 | 14353 ft | 403 kts | 327° |
| 2026-05-09 02:46 | 3.39819 | 99.41977 | 13870 ft | 400 kts | 327° |
| 2026-05-09 02:46 | 3.42145 | 99.40464 | 13350 ft | 396 kts | 327° |
| 2026-05-09 02:46 | 3.44443 | 99.38965 | 12852 ft | 392 kts | 327° |
| 2026-05-09 02:46 | 3.46713 | 99.37484 | 12414 ft | 387 kts | 327° |
| 2026-05-09 02:47 | 3.48951 | 99.36024 | 11988 ft | 382 kts | 327° |
| 2026-05-09 02:47 | 3.51166 | 99.34581 | 11534 ft | 378 kts | 327° |
| 2026-05-09 02:47 | 3.53330 | 99.33113 | 11082 ft | 372 kts | 322° |
| 2026-05-09 02:47 | 3.55253 | 99.31401 | 10667 ft | 369 kts | 315° |
| 2026-05-09 02:48 | 3.57044 | 99.29577 | 10217 ft | 366 kts | 314° |
| 2026-05-09 02:48 | 3.58806 | 99.27747 | 9831 ft | 362 kts | 314° |
| 2026-05-09 02:48 | 3.60551 | 99.25967 | 9578 ft | 354 kts | 315° |
| 2026-05-09 02:48 | 3.62256 | 99.24260 | 9499 ft | 340 kts | 315° |
| 2026-05-09 02:49 | 3.63909 | 99.22625 | 9415 ft | 326 kts | 315° |
| 2026-05-09 02:49 | 3.65455 | 99.21106 | 9149 ft | 300 kts | 315° |
| 2026-05-09 02:49 | 3.66909 | 99.19682 | 8660 ft | 286 kts | 316° |
| 2026-05-09 02:49 | 3.68311 | 99.18307 | 8037 ft | 279 kts | 315° |
| 2026-05-09 02:50 | 3.69690 | 99.16957 | 7370 ft | 276 kts | 315° |
| 2026-05-09 02:50 | 3.71055 | 99.15620 | 6748 ft | 271 kts | 315° |
| 2026-05-09 02:50 | 3.72383 | 99.14321 | 6450 ft | 272 kts | 316° |
| 2026-05-09 02:50 | 3.73748 | 99.12985 | 6104 ft | 275 kts | 316° |
| 2026-05-09 02:51 | 3.75116 | 99.11646 | 5768 ft | 275 kts | 316° |
| 2026-05-09 02:51 | 3.76486 | 99.10305 | 5430 ft | 275 kts | 316° |
| 2026-05-09 02:51 | 3.77855 | 99.08964 | 5104 ft | 275 kts | 316° |
| 2026-05-09 02:51 | 3.79224 | 99.07624 | 4773 ft | 274 kts | 315° |
| 2026-05-09 02:52 | 3.80299 | 99.06095 | 4423 ft | 268 kts | 287° |
| 2026-05-09 02:52 | 3.80383 | 99.04282 | 4195 ft | 261 kts | 253° |
| 2026-05-09 02:52 | 3.79514 | 99.02727 | 3931 ft | 256 kts | 229° |
| 2026-05-09 02:52 | 3.78272 | 99.01458 | 3643 ft | 254 kts | 223° |
| 2026-05-09 02:53 | 3.77018 | 99.00254 | 3463 ft | 248 kts | 224° |
| 2026-05-09 02:53 | 3.75839 | 98.99089 | 3331 ft | 227 kts | 225° |
| 2026-05-09 02:53 | 3.74750 | 98.98001 | 3168 ft | 212 kts | 225° |
| 2026-05-09 02:53 | 3.73750 | 98.97001 | 2940 ft | 194 kts | 225° |
| 2026-05-09 02:54 | 3.72817 | 98.96070 | 2570 ft | 187 kts | 225° |
| 2026-05-09 02:54 | 3.71904 | 98.95160 | 2115 ft | 183 kts | 225° |
| 2026-05-09 02:54 | 3.71024 | 98.94281 | 1672 ft | 172 kts | 225° |
| 2026-05-09 02:54 | 3.70201 | 98.93459 | 1458 ft | 169 kts | 225° |
| 2026-05-09 02:55 | 3.69350 | 98.92609 | 1230 ft | 170 kts | 225° |
| 2026-05-09 02:55 | 3.68555 | 98.91816 | 995 ft | 152 kts | 225° |
| 2026-05-09 02:55 | 3.67822 | 98.91084 | 838 ft | 149 kts | 225° |
| 2026-05-09 02:55 | 3.67089 | 98.90353 | 661 ft | 147 kts | 225° |
| 2026-05-09 02:56 | 3.66372 | 98.89637 | 459 ft | 143 kts | 225° |
| 2026-05-09 02:56 | 3.65658 | 98.88941 | 242 ft | 142 kts | 223° |
| 2026-05-09 02:56 | 3.64962 | 98.88247 | 92 ft | 142 kts | 226° |
| 2026-05-09 02:56 | 3.64300 | 98.87572 | 39 ft | 124 kts | 225° |
| 2026-05-09 02:57 | 3.63804 | 98.87078 | 42 ft | 80 kts | 224° |
| 2026-05-09 02:57 | 3.63579 | 98.86857 | 41 ft | 61 kts | 224° |
| 2026-05-09 02:57 | 3.63220 | 98.86499 | 40 ft | 46 kts | 225° |
| 2026-05-09 02:57 | 3.63068 | 98.86373 | 41 ft | 38 kts | 212° |
| 2026-05-09 02:58 | 3.62865 | 98.86313 | 44 ft | 14 kts | 152° |
| 2026-05-09 02:58 | 3.62869 | 98.86399 | 44 ft | 15 kts | 47° |
| 2026-05-09 02:58 | 3.62944 | 98.86472 | 44 ft | 16 kts | 46° |
| 2026-05-09 02:58 | 3.63001 | 98.86529 | 44 ft | 18 kts | 45° |
| 2026-05-09 02:59 | 3.63095 | 98.86626 | 44 ft | 21 kts | 46° |
| 2026-05-09 02:59 | 3.63203 | 98.86732 | 43 ft | 23 kts | 44° |
| 2026-05-09 02:59 | 3.63321 | 98.86847 | 44 ft | 25 kts | 45° |
| 2026-05-09 02:59 | 3.63442 | 98.86969 | 44 ft | 25 kts | 46° |
| 2026-05-09 03:00 | 3.63565 | 98.87092 | 44 ft | 25 kts | 45° |
| 2026-05-09 03:00 | 3.63687 | 98.87214 | 44 ft | 25 kts | 45° |
| 2026-05-09 03:00 | 3.63807 | 98.87333 | 44 ft | 25 kts | 45° |
| 2026-05-09 03:00 | 3.63929 | 98.87454 | 43 ft | 25 kts | 45° |
| 2026-05-09 03:01 | 3.64051 | 98.87575 | 43 ft | 25 kts | 44° |
| 2026-05-09 03:01 | 3.64172 | 98.87696 | 43 ft | 25 kts | 45° |
| 2026-05-09 03:01 | 3.64288 | 98.87810 | 44 ft | 20 kts | 45° |
| 2026-05-09 03:01 | 3.64373 | 98.87897 | 44 ft | 16 kts | 46° |
| 2026-05-09 03:02 | 3.64421 | 98.87960 | 44 ft | 10 kts | 81° |
| 2026-05-09 03:02 | 3.64389 | 98.88019 | 44 ft | 10 kts | 135° |
| 2026-05-09 03:02 | 3.64339 | 98.88069 | 45 ft | 10 kts | 135° |
| 2026-05-09 03:02 | 3.64288 | 98.88119 | 45 ft | 10 kts | 135° |
| 2026-05-09 03:03 | 3.64238 | 98.88169 | 45 ft | 10 kts | 135° |
| 2026-05-09 03:03 | 3.64175 | 98.88194 | 45 ft | 10 kts | 191° |
| 2026-05-09 03:03 | 3.64116 | 98.88153 | 45 ft | 11 kts | 225° |
| 2026-05-09 03:03 | 3.64064 | 98.88101 | 45 ft | 11 kts | 225° |
| 2026-05-09 03:04 | 3.64012 | 98.88049 | 45 ft | 11 kts | 225° |
| 2026-05-09 03:04 | 3.63960 | 98.87997 | 45 ft | 11 kts | 225° |
| 2026-05-09 03:04 | 3.63900 | 98.87970 | 45 ft | 10 kts | 172° |
| 2026-05-09 03:04 | 3.63841 | 98.88007 | 45 ft | 10 kts | 136° |
| 2026-05-09 03:05 | 3.63798 | 98.88049 | 45 ft | 8 kts | 141° |
| 2026-05-09 03:05 | 3.63751 | 98.88035 | 45 ft | 5 kts | 221° |
| 2026-05-09 03:05 | 3.63736 | 98.88021 | 45 ft | 2 kts | 223° |
| 2026-05-09 03:05 | 3.63727 | 98.88011 | 45 ft | 1 kts | 224° |
| 2026-05-09 03:06 | 3.63724 | 98.88009 | 45 ft | 0 kts | 224° |